Kagel Canyon, California
Current Conditions -  °F | °C
As of 5:53 AM on Wednesday 28 Jan 2015 (Local Time) from KBUR Reporting Station
Clear Clear  
Wind Chill: 53°   Ceiling: Unl
Heat Index: 53°   Visibility: 10mi
Dew Point: 46°   Wind: 3mph
Humidity: 77%   Direction: 30°NNE
Pressure: 30.14"   Gusts: NA
Location:  34.3277°N, 118.389°W
Report Text: KBUR 281353Z 03003KT 10SM CLR 12/08 A3014 RMK AO2 SLP197 T01170078
Loading
Personal Weather Stations






























Interactive Weather Map New forecast layout! Learn more

10-Day Weather Forecast

Advertisements
Track Severe Weather on mobile